Hat Creek, California
Current Conditions -  °F | °C
As of 7:53 AM on Friday 19 Dec 2014 (Local Time) from KRDD Reporting Station
Overcast Overcast  
Wind Chill: 52°   Ceiling: 1100
Heat Index: 52°   Visibility: 10mi
Dew Point: 49°   Wind: 10mph
Humidity: 89%   Direction: 210°SSW
Pressure: 30.09"   Gusts: NA
Location:  40.79°N, 121.51°W
Report Text: KRDD 191553Z 21009KT 10SM OVC011 11/09 A3009 RMK AO2 RAE03 SLP188 P0000 T01110094
Loading
Personal Weather Stations






























Interactive Weather Map New forecast layout! Learn more

10-Day Weather Forecast

Advertisements
Track Severe Weather on mobile